createdAt,value
2023-03-06T00:00:40.591Z,99103.50
2023-03-06T00:03:07.342Z,99111.16
2023-03-06T00:05:34.158Z,99094.38
2023-03-06T00:08:01.239Z,99106.38
2023-03-06T00:10:30.671Z,99101.69
2023-03-06T00:13:00.993Z,99099.59
2023-03-06T00:15:28.278Z,99099.47
2023-03-06T00:17:55.954Z,99101.91
2023-03-06T00:20:23.559Z,99103.78
2023-03-06T00:22:51.761Z,99100.72
2023-03-06T00:25:20.890Z,99104.94
2023-03-06T00:27:49.436Z,99107.09
2023-03-06T00:30:24.774Z,99103.91
2023-03-06T00:32:53.093Z,99122.00
2023-03-06T00:35:19.791Z,99110.16
2023-03-06T00:37:46.645Z,99114.84
2023-03-06T00:40:18.759Z,99117.13
2023-03-06T00:42:45.676Z,99090.59
2023-03-06T00:45:14.030Z,99122.22
2023-03-06T00:47:41.387Z,99123.97
2023-03-06T00:50:08.925Z,99128.03
2023-03-06T00:52:36.115Z,99127.22
2023-03-06T00:55:02.860Z,99125.75
2023-03-06T00:57:30.615Z,99121.28
2023-03-06T00:59:58.515Z,99131.13
2023-03-06T01:02:25.755Z,99118.66
2023-03-06T01:04:53.382Z,99112.19
2023-03-06T01:07:21.037Z,99132.75
2023-03-06T01:09:48.108Z,99130.50
2023-03-06T01:12:15.044Z,99135.22
2023-03-06T01:14:41.743Z,99130.78
2023-03-06T01:17:08.469Z,99127.44
2023-03-06T01:19:35.423Z,99105.03
2023-03-06T01:22:02.494Z,99118.44
2023-03-06T01:24:29.409Z,99127.84
2023-03-06T01:26:56.054Z,99141.06
2023-03-06T01:29:22.768Z,99137.09
2023-03-06T01:31:49.444Z,99136.88
2023-03-06T01:34:16.159Z,99143.22
2023-03-06T01:36:42.892Z,99151.63
2023-03-06T01:39:10.039Z,99144.16
2023-03-06T01:41:36.963Z,99151.28
2023-03-06T01:44:03.757Z,99151.50
2023-03-06T01:46:34.062Z,99159.63
2023-03-06T01:49:05.877Z,99159.41
2023-03-06T01:51:38.282Z,99166.97
2023-03-06T01:54:10.658Z,99168.41
2023-03-06T01:56:39.868Z,99166.69
2023-03-06T01:59:07.566Z,99179.84
2023-03-06T02:01:34.682Z,99164.88
2023-03-06T02:04:01.825Z,99178.53
2023-03-06T02:06:28.752Z,99181.56
2023-03-06T02:08:56.220Z,99150.78
2023-03-06T02:11:24.793Z,99181.25
2023-03-06T02:13:53.908Z,99179.09
2023-03-06T02:16:26.889Z,99179.84
2023-03-06T02:18:53.781Z,99190.34
2023-03-06T02:21:25.593Z,99196.69
2023-03-06T02:24:50.873Z,99197.72
2023-03-06T02:27:19.037Z,99203.94
2023-03-06T02:29:46.595Z,99205.53
2023-03-06T02:32:13.386Z,99209.84
2023-03-06T02:34:40.030Z,99202.38
2023-03-06T02:37:11.019Z,99199.91
2023-03-06T02:39:48.937Z,99203.81
2023-03-06T02:42:21.745Z,99208.78
2023-03-06T02:44:49.938Z,99208.22
2023-03-06T02:47:16.705Z,99210.22
2023-03-06T02:49:43.362Z,99214.66
2023-03-06T02:52:10.113Z,99216.25
2023-03-06T02:54:36.835Z,99204.44
2023-03-06T02:57:03.634Z,99196.81
2023-03-06T02:59:30.527Z,99212.47
2023-03-06T03:01:57.202Z,99202.25
2023-03-06T03:04:23.936Z,99215.44
2023-03-06T03:06:50.654Z,99213.94
2023-03-06T03:09:17.529Z,99206.34
2023-03-06T03:11:44.732Z,99228.88
2023-03-06T03:14:11.468Z,99223.81
2023-03-06T03:16:39.210Z,99213.06
2023-03-06T03:19:06.110Z,99224.63
2023-03-06T03:21:32.837Z,99229.91
2023-03-06T03:23:59.927Z,99227.25
2023-03-06T03:26:26.806Z,99225.38
2023-03-06T03:28:53.442Z,99213.94
2023-03-06T03:31:20.756Z,99233.22
2023-03-06T03:33:47.756Z,99237.69
2023-03-06T03:36:14.498Z,99244.81
2023-03-06T03:38:41.497Z,99237.81
2023-03-06T03:41:08.140Z,99248.13
2023-03-06T03:43:34.966Z,99247.69
2023-03-06T03:46:01.693Z,99249.88
2023-03-06T03:48:28.386Z,99239.97
2023-03-06T03:50:55.310Z,99251.00
2023-03-06T03:53:22.215Z,99252.41
2023-03-06T03:55:49.197Z,99254.41
2023-03-06T03:58:15.999Z,99236.31
2023-03-06T04:00:43.354Z,99247.63
2023-03-06T04:03:10.306Z,99237.38
2023-03-06T04:05:37.026Z,99264.22
2023-03-06T04:08:04.384Z,99265.78
2023-03-06T04:10:31.187Z,99264.28
2023-03-06T04:12:57.917Z,99253.53
2023-03-06T04:15:24.663Z,99259.19
2023-03-06T04:17:52.995Z,99265.13
2023-03-06T04:20:19.831Z,99271.31
2023-03-06T04:22:47.693Z,99251.69
2023-03-06T04:25:14.804Z,99259.41
2023-03-06T04:27:43.158Z,99257.03
2023-03-06T04:30:10.531Z,99260.03
2023-03-06T04:32:37.452Z,99259.94
2023-03-06T04:35:05.401Z,99258.69
2023-03-06T04:37:32.768Z,99270.31
2023-03-06T04:40:00.958Z,99265.38
2023-03-06T04:42:32.206Z,99263.47
2023-03-06T04:44:59.549Z,99271.75
2023-03-06T04:47:26.407Z,99269.22
2023-03-06T04:49:53.104Z,99268.59
2023-03-06T04:52:19.843Z,99266.03
2023-03-06T04:54:46.611Z,99283.78
2023-03-06T04:57:14.263Z,99285.41
2023-03-06T04:59:41.183Z,99279.88
2023-03-06T05:02:08.322Z,99287.13
2023-03-06T05:04:36.566Z,99292.69
2023-03-06T05:07:03.542Z,99289.22
2023-03-06T05:09:30.216Z,99296.13
2023-03-06T05:11:56.875Z,99296.59
2023-03-06T05:14:24.045Z,99306.03
2023-03-06T05:16:50.829Z,99315.50
2023-03-06T05:19:17.541Z,99313.63
2023-03-06T05:21:44.180Z,99320.31
2023-03-06T05:24:10.838Z,99317.16
2023-03-06T05:26:37.955Z,99308.59
2023-03-06T05:29:04.617Z,99314.69
2023-03-06T05:31:32.858Z,99318.22
2023-03-06T05:34:00.767Z,99316.81
2023-03-06T05:36:28.017Z,99322.84
2023-03-06T05:38:54.935Z,99322.53
2023-03-06T05:41:21.861Z,99334.50
2023-03-06T05:43:48.603Z,99338.22
2023-03-06T05:46:15.299Z,99347.75
2023-03-06T05:48:42.119Z,99350.75
2023-03-06T05:51:11.011Z,99287.19
2023-03-06T05:53:37.960Z,99356.66
2023-03-06T05:56:09.718Z,99351.63
2023-03-06T05:58:37.778Z,99351.56
2023-03-06T06:01:13.194Z,99346.28
2023-03-06T06:03:40.600Z,99357.19
2023-03-06T06:06:13.617Z,99361.59
2023-03-06T06:08:41.572Z,99354.91
2023-03-06T06:11:10.270Z,99352.56
2023-03-06T06:13:38.501Z,99356.31
2023-03-06T06:16:15.807Z,99360.22
2023-03-06T06:18:43.533Z,99353.00
2023-03-06T06:21:13.283Z,99360.91
2023-03-06T06:23:39.983Z,99368.44
2023-03-06T06:26:08.311Z,99370.00
2023-03-06T06:28:35.428Z,99371.38
2023-03-06T06:31:12.423Z,99373.66
2023-03-06T06:33:42.029Z,99382.75
2023-03-06T06:36:21.066Z,99386.44
2023-03-06T06:38:49.247Z,99377.31
2023-03-06T06:41:50.656Z,99388.66
2023-03-06T06:44:08.690Z,99380.63
2023-03-06T06:49:22.985Z,99406.44
2023-03-06T06:51:49.812Z,99413.34
2023-03-06T06:54:16.652Z,99416.16
2023-03-06T06:56:43.359Z,99403.38
2023-03-06T06:59:16.619Z,99406.22
2023-03-06T07:01:44.947Z,99420.59
2023-03-06T07:04:15.063Z,99426.16
2023-03-06T07:06:43.036Z,99433.38
2023-03-06T07:09:10.371Z,99433.97
2023-03-06T07:11:38.504Z,99420.31
2023-03-06T07:14:05.732Z,99429.38
2023-03-06T07:16:32.438Z,99433.38
2023-03-06T07:18:59.077Z,99428.78
2023-03-06T07:21:25.951Z,99434.63
2023-03-06T07:23:56.102Z,99439.75
2023-03-06T07:26:23.797Z,99431.47
2023-03-06T07:28:53.592Z,99434.44
2023-03-06T07:31:22.547Z,99435.38
2023-03-06T07:33:50.436Z,99448.66
2023-03-06T07:36:18.429Z,99435.16
2023-03-06T07:38:46.040Z,99429.72
2023-03-06T07:41:15.288Z,99433.53
2023-03-06T07:43:46.604Z,99431.81
2023-03-06T07:46:14.485Z,99424.66
2023-03-06T07:48:42.234Z,99424.13
2023-03-06T07:51:14.674Z,99435.78
2023-03-06T07:53:41.870Z,99441.50
2023-03-06T07:56:09.510Z,99420.03
2023-03-06T07:58:37.855Z,99427.34
2023-03-06T08:01:13.109Z,99430.22
2023-03-06T08:03:40.219Z,99427.78
2023-03-06T08:06:18.920Z,99422.00
2023-03-06T08:08:47.110Z,99431.44
2023-03-06T08:11:15.685Z,99437.25
2023-03-06T08:13:42.955Z,99434.88
2023-03-06T08:16:11.117Z,99425.22
2023-03-06T08:18:40.342Z,99437.00
2023-03-06T08:21:10.672Z,99439.47
2023-03-06T08:23:38.074Z,99433.28
2023-03-06T08:26:08.238Z,99439.81
2023-03-06T08:28:35.337Z,99445.84
2023-03-06T08:31:31.712Z,99442.59
2023-03-06T08:34:01.732Z,99422.94
2023-03-06T08:36:28.967Z,99432.81
2023-03-06T08:38:56.192Z,99427.59
2023-03-06T08:41:23.224Z,99437.91
2023-03-06T08:43:50.751Z,99437.91
2023-03-06T08:46:18.988Z,99442.53
2023-03-06T08:48:47.888Z,99437.59
2023-03-06T08:51:15.304Z,99438.34
2023-03-06T08:53:43.972Z,99435.59
2023-03-06T08:56:23.139Z,99434.06
2023-03-06T08:58:50.586Z,99426.97
2023-03-06T09:01:20.956Z,99438.41
2023-03-06T09:03:47.838Z,99434.59
2023-03-06T09:06:15.514Z,99437.22
2023-03-06T09:08:44.016Z,99436.63
2023-03-06T09:11:12.165Z,99439.94
2023-03-06T09:13:40.032Z,99433.47
2023-03-06T09:16:07.516Z,99435.72
2023-03-06T09:18:34.814Z,99442.69
2023-03-06T09:21:02.016Z,99433.28
2023-03-06T09:23:28.698Z,99417.81
2023-03-06T09:25:56.916Z,99429.88
2023-03-06T09:28:24.411Z,99426.16
2023-03-06T09:30:51.922Z,99432.47
2023-03-06T09:33:19.418Z,99433.00
2023-03-06T09:35:56.838Z,99425.50
2023-03-06T09:38:28.135Z,99432.56
2023-03-06T09:40:58.370Z,99434.88
2023-03-06T09:43:33.466Z,99433.88
2023-03-06T09:46:00.345Z,99425.47
2023-03-06T09:49:15.443Z,99416.00
2023-03-06T09:52:10.201Z,99421.66
2023-03-06T09:54:46.227Z,99424.06
2023-03-06T09:57:27.113Z,99412.28
2023-03-06T09:59:56.843Z,99401.53
2023-03-06T10:02:41.209Z,99408.97
2023-03-06T10:05:15.883Z,99416.03
2023-03-06T10:08:01.993Z,99417.22
2023-03-06T10:10:40.794Z,99414.16
2023-03-06T10:13:14.085Z,99385.34
2023-03-06T10:15:44.129Z,99383.53
2023-03-06T10:18:12.560Z,99389.53
2023-03-06T10:21:18.511Z,99394.28
2023-03-06T10:23:57.424Z,99386.56
2023-03-06T10:26:27.035Z,99385.88
2023-03-06T10:29:14.711Z,99382.09
2023-03-06T10:31:49.548Z,99378.19
2023-03-06T10:34:19.359Z,99374.56
2023-03-06T10:36:46.062Z,99334.53
2023-03-06T10:39:21.970Z,99364.25
2023-03-06T10:41:49.941Z,99364.72
2023-03-06T10:44:18.204Z,99363.13
2023-03-06T10:46:48.036Z,99359.81
2023-03-06T10:49:26.975Z,99352.50
2023-03-06T10:51:59.850Z,99353.13
2023-03-06T10:54:28.261Z,99352.00
2023-03-06T10:56:54.965Z,99334.78
2023-03-06T10:59:25.455Z,99337.63
2023-03-06T11:02:15.058Z,99346.25
2023-03-06T11:04:46.730Z,99329.06
2023-03-06T11:07:18.937Z,99330.84
2023-03-06T11:09:59.259Z,99314.22
2023-03-06T11:12:40.611Z,99322.44
2023-03-06T11:15:10.117Z,99326.41
2023-03-06T11:17:48.680Z,99318.38
2023-03-06T11:20:18.626Z,99326.56
2023-03-06T11:22:56.815Z,99313.84
2023-03-06T11:25:29.878Z,99320.28
2023-03-06T11:28:28.309Z,99323.75
2023-03-06T11:31:02.602Z,99311.88
2023-03-06T11:33:49.957Z,99305.59
2023-03-06T11:36:26.708Z,99297.94
2023-03-06T11:38:54.746Z,99304.19
2023-03-06T11:41:35.816Z,99292.53
2023-03-06T11:44:11.448Z,99297.78
2023-03-06T11:46:43.999Z,99303.88
2023-03-06T11:49:22.853Z,99293.91
2023-03-06T11:51:59.734Z,99292.16
2023-03-06T11:54:26.649Z,99289.00
2023-03-06T11:57:10.956Z,99286.69
2023-03-06T11:59:56.040Z,99285.25
2023-03-06T12:06:09.774Z,99281.00
2023-03-06T12:08:50.095Z,99278.19
2023-03-06T12:11:22.845Z,99273.06
2023-03-06T12:14:14.313Z,99279.56
2023-03-06T12:16:43.982Z,99282.75
2023-03-06T12:19:21.406Z,99286.56
2023-03-06T12:22:00.831Z,99271.94
2023-03-06T12:24:36.764Z,99272.59
2023-03-06T12:27:13.386Z,99262.84
2023-03-06T12:29:57.964Z,99271.84
2023-03-06T12:32:35.359Z,99261.91
2023-03-06T12:35:47.922Z,99260.13
2023-03-06T12:38:42.086Z,99260.97
2023-03-06T12:41:26.670Z,99260.13
2023-03-06T12:44:17.863Z,99250.66
2023-03-06T12:46:49.867Z,99258.25
2023-03-06T12:49:33.332Z,99257.75
2023-03-06T12:52:04.410Z,99250.09
2023-03-06T12:54:38.744Z,99240.72
2023-03-06T12:57:08.535Z,99253.50
2023-03-06T12:59:44.654Z,99241.13
2023-03-06T13:02:29.564Z,99248.38
2023-03-06T13:05:21.664Z,99248.25
2023-03-06T13:07:57.465Z,99239.84
2023-03-06T13:10:30.536Z,99245.41
2023-03-06T13:12:57.303Z,99242.06
2023-03-06T13:15:42.201Z,99240.72
2023-03-06T13:18:24.019Z,99231.66
2023-03-06T13:20:57.652Z,99235.97
2023-03-06T13:23:51.712Z,99240.59
2023-03-06T13:26:24.568Z,99237.94
2023-03-06T13:28:54.273Z,99230.22
2023-03-06T13:31:31.012Z,99228.44
2023-03-06T13:34:01.872Z,99231.91
2023-03-06T13:36:33.857Z,99232.19
2023-03-06T13:39:02.707Z,99225.38
2023-03-06T13:41:32.438Z,99225.13
2023-03-06T13:44:01.668Z,99201.44
2023-03-06T13:46:38.082Z,99218.31
2023-03-06T13:49:11.159Z,99215.66
2023-03-06T13:51:48.195Z,99215.06
2023-03-06T13:54:26.750Z,99211.00
2023-03-06T13:57:15.282Z,99196.06
2023-03-06T14:00:12.431Z,99195.59
2023-03-06T14:02:54.968Z,99202.09
2023-03-06T14:05:22.740Z,99200.13
2023-03-06T14:08:06.034Z,99186.09
2023-03-06T14:10:35.523Z,99196.31
2023-03-06T14:13:14.227Z,99197.31
2023-03-06T14:15:48.535Z,99195.88
2023-03-06T14:18:51.281Z,99208.44
2023-03-06T14:21:55.090Z,99202.03
2023-03-06T14:24:40.620Z,99201.38
2023-03-06T14:27:07.459Z,99193.13
2023-03-06T14:29:34.489Z,99177.22
2023-03-06T14:32:02.394Z,99202.09
2023-03-06T14:34:33.278Z,99196.38
2023-03-06T14:37:08.317Z,99201.47
2023-03-06T14:39:42.013Z,99205.69
2023-03-06T14:42:27.042Z,99199.69
2023-03-06T14:45:17.951Z,99202.19
2023-03-06T14:47:51.501Z,99204.97
2023-03-06T14:50:32.792Z,99203.00
2023-03-06T14:53:15.925Z,99209.56
2023-03-06T14:55:50.523Z,99207.31
2023-03-06T14:58:35.730Z,99202.44
2023-03-06T15:01:06.723Z,99207.53
2023-03-06T15:03:53.130Z,99206.88
2023-03-06T15:06:24.873Z,99203.81
2023-03-06T15:09:14.555Z,99212.25
2023-03-06T15:12:01.246Z,99214.53
2023-03-06T15:14:34.732Z,99207.38
2023-03-06T15:17:27.625Z,99213.13
2023-03-06T15:19:56.795Z,99211.78
2023-03-06T15:22:31.896Z,99212.06
2023-03-06T15:25:27.473Z,99209.66
2023-03-06T15:27:55.679Z,99210.78
2023-03-06T15:30:30.588Z,99158.97
2023-03-06T15:33:26.165Z,99209.81
2023-03-06T15:35:58.431Z,99204.53
2023-03-06T15:38:31.712Z,99206.56
2023-03-06T15:41:00.786Z,99207.13
2023-03-06T15:43:32.226Z,99210.13
2023-03-06T15:46:00.722Z,99209.41
2023-03-06T15:48:28.402Z,99208.69
2023-03-06T15:50:55.301Z,99205.44
2023-03-06T15:53:22.083Z,99206.00
2023-03-06T15:55:50.196Z,99201.38
2023-03-06T15:58:21.528Z,99205.03
2023-03-06T16:00:48.248Z,99202.84
2023-03-06T16:03:15.002Z,99206.56
2023-03-06T16:05:41.715Z,99208.00
2023-03-06T16:08:10.943Z,99203.66
2023-03-06T16:10:40.841Z,99195.88
2023-03-06T16:13:12.715Z,99216.19
2023-03-06T16:15:44.939Z,99217.56
2023-03-06T16:18:12.592Z,99205.34
2023-03-06T16:20:40.302Z,99224.38
2023-03-06T16:23:10.465Z,99215.03
2023-03-06T16:25:43.226Z,99224.34
2023-03-06T16:28:14.759Z,99232.22
2023-03-06T16:30:43.673Z,99227.91
2023-03-06T16:33:11.830Z,99237.34
2023-03-06T16:35:39.318Z,99218.94
2023-03-06T16:38:06.074Z,99234.50
2023-03-06T16:40:41.149Z,99251.56
2023-03-06T16:43:09.187Z,99231.34
2023-03-06T16:45:38.798Z,99194.16
2023-03-06T16:48:06.510Z,99250.56
2023-03-06T16:50:40.974Z,99251.47
2023-03-06T16:53:08.337Z,99243.44
2023-03-06T16:55:35.047Z,99247.94
2023-03-06T16:58:01.722Z,99254.53
2023-03-06T17:00:33.238Z,99254.91
2023-03-06T17:03:01.671Z,99250.97
2023-03-06T17:05:29.033Z,99250.97
2023-03-06T17:07:56.349Z,99263.59
2023-03-06T17:10:26.345Z,99256.50
2023-03-06T17:12:54.267Z,99254.97
2023-03-06T17:15:21.399Z,99265.97
2023-03-06T17:17:48.789Z,99262.88
2023-03-06T17:20:15.804Z,99257.44
2023-03-06T17:22:42.722Z,99262.59
2023-03-06T17:25:09.718Z,99266.56
2023-03-06T17:27:36.543Z,99265.41
2023-03-06T17:30:04.559Z,99259.69
2023-03-06T17:32:32.858Z,99268.25
2023-03-06T17:34:59.871Z,99264.44
2023-03-06T17:37:26.662Z,99254.50
2023-03-06T17:39:53.487Z,99251.16
2023-03-06T17:42:20.226Z,99248.50
2023-03-06T17:44:48.020Z,99257.47
2023-03-06T17:47:14.901Z,99237.91
2023-03-06T17:49:41.603Z,99265.22
2023-03-06T17:52:08.352Z,99257.25
2023-03-06T17:54:35.986Z,99260.06
2023-03-06T17:57:05.487Z,99262.22
2023-03-06T17:59:36.847Z,99257.44
2023-03-06T18:02:04.261Z,99245.72
2023-03-06T18:04:31.149Z,99239.44
2023-03-06T18:06:58.596Z,99250.81
2023-03-06T18:09:25.646Z,99233.88
2023-03-06T18:11:52.647Z,99251.81
2023-03-06T18:14:19.518Z,99249.53
2023-03-06T18:16:46.733Z,99246.38
2023-03-06T18:19:13.810Z,99259.47
2023-03-06T18:21:40.750Z,99241.31
2023-03-06T18:24:08.664Z,99255.06
2023-03-06T18:26:36.053Z,99255.50
2023-03-06T18:29:04.646Z,99251.69
2023-03-06T18:31:37.264Z,99256.81
2023-03-06T18:34:10.882Z,99265.94
2023-03-06T18:36:38.127Z,99260.38
2023-03-06T18:39:09.703Z,99269.25
2023-03-06T18:41:36.559Z,99259.97
2023-03-06T18:44:03.809Z,99240.41
2023-03-06T18:46:38.054Z,99262.47
2023-03-06T18:49:06.264Z,99257.81
2023-03-06T18:51:33.440Z,99260.66
2023-03-06T18:54:01.712Z,99261.50
2023-03-06T18:56:28.788Z,99231.09
2023-03-06T18:58:56.053Z,99257.22
2023-03-06T19:01:23.291Z,99268.50
2023-03-06T19:03:50.276Z,99276.47
2023-03-06T19:06:17.364Z,99243.28
2023-03-06T19:08:44.774Z,99271.25
2023-03-06T19:11:16.393Z,99254.53
2023-03-06T19:13:43.808Z,99262.06
2023-03-06T19:16:21.483Z,99265.38
2023-03-06T19:18:48.438Z,99268.84
2023-03-06T19:21:20.835Z,99255.56
2023-03-06T19:23:47.522Z,99259.63
2023-03-06T19:26:14.915Z,99271.09
2023-03-06T19:28:42.674Z,99285.16
2023-03-06T19:31:20.659Z,99273.16
2023-03-06T19:33:49.601Z,99276.63
2023-03-06T19:36:18.214Z,99270.91
2023-03-06T19:38:45.396Z,99262.34
2023-03-06T19:41:13.825Z,99279.31
2023-03-06T19:43:42.133Z,99275.84
2023-03-06T19:46:15.113Z,99247.47
2023-03-06T19:48:42.660Z,99270.34
2023-03-06T19:51:10.287Z,99265.00
2023-03-06T19:53:37.188Z,99273.59
2023-03-06T19:56:20.055Z,99268.69
2023-03-06T19:58:46.958Z,99263.78
2023-03-06T20:01:17.093Z,99266.81
2023-03-06T20:03:44.135Z,99262.75
2023-03-06T20:06:14.016Z,99262.94
2023-03-06T20:08:40.672Z,99268.25
2023-03-06T20:11:07.330Z,99255.84
2023-03-06T20:13:34.070Z,99267.44
2023-03-06T20:16:04.163Z,99262.97
2023-03-06T20:18:30.906Z,99263.19
2023-03-06T20:23:57.029Z,99270.13
2023-03-06T20:26:25.465Z,99265.59
2023-03-06T20:28:52.177Z,99268.25
2023-03-06T20:31:26.743Z,99281.41
2023-03-06T20:33:55.180Z,99280.13
2023-03-06T20:36:30.396Z,99288.25
2023-03-06T20:38:59.864Z,99277.41
2023-03-06T20:41:28.738Z,99276.81
2023-03-06T20:43:55.915Z,99276.00
2023-03-06T20:46:23.226Z,99270.28
2023-03-06T20:48:52.338Z,99268.66
2023-03-06T20:51:28.790Z,99260.72
2023-03-06T20:53:56.521Z,99261.53
2023-03-06T20:56:29.225Z,99262.19
2023-03-06T20:58:56.942Z,99271.53
2023-03-06T21:01:29.131Z,99265.84
2023-03-06T21:03:57.065Z,99258.09
2023-03-06T21:06:24.664Z,99269.72
2023-03-06T21:08:51.465Z,99272.78
2023-03-06T21:11:18.702Z,99262.19
2023-03-06T21:13:45.350Z,99262.16
2023-03-06T21:16:15.313Z,99263.78
2023-03-06T21:18:42.381Z,99260.16
2023-03-06T21:21:23.717Z,99247.50
2023-03-06T21:23:51.181Z,99255.25
2023-03-06T21:26:22.866Z,99257.91
2023-03-06T21:28:50.116Z,99255.66
2023-03-06T21:31:19.174Z,99261.97
2023-03-06T21:33:46.182Z,99240.34
2023-03-06T21:36:13.253Z,99248.47
2023-03-06T21:38:40.507Z,99245.81
2023-03-06T21:41:24.151Z,99248.66
2023-03-06T21:43:55.340Z,99251.34
2023-03-06T21:46:23.691Z,99245.00
2023-03-06T21:48:50.434Z,99246.63
2023-03-06T21:51:19.626Z,99244.16
2023-03-06T21:53:47.841Z,99246.13
2023-03-06T21:56:17.289Z,99255.47
2023-03-06T21:58:44.974Z,99244.72
2023-03-06T22:01:15.751Z,99239.84
2023-03-06T22:03:42.530Z,99238.34
2023-03-06T22:06:11.691Z,99235.47
2023-03-06T22:08:38.785Z,99221.00
2023-03-06T22:11:10.804Z,99232.19
2023-03-06T22:13:38.061Z,99237.34
2023-03-06T22:16:05.553Z,99235.38
2023-03-06T22:18:33.276Z,99238.44
2023-03-06T22:21:00.118Z,99235.38
2023-03-06T22:23:27.013Z,99241.09
2023-03-06T22:25:53.685Z,99238.84
2023-03-06T22:28:20.551Z,99238.03
2023-03-06T22:30:47.231Z,99231.66
2023-03-06T22:33:14.151Z,99219.34
2023-03-06T22:35:40.878Z,99225.72
2023-03-06T22:38:07.641Z,99224.97
2023-03-06T22:40:34.447Z,99232.28
2023-03-06T22:43:01.220Z,99233.03
2023-03-06T22:45:27.902Z,99227.75
2023-03-06T22:48:02.322Z,99223.66
2023-03-06T22:50:35.861Z,99225.88
2023-03-06T22:53:02.535Z,99213.31
2023-03-06T22:55:29.213Z,99133.63
2023-03-06T22:57:57.407Z,99221.47
2023-03-06T23:00:24.819Z,99222.22
2023-03-06T23:02:51.497Z,99225.47
2023-03-06T23:05:18.942Z,99224.47
2023-03-06T23:07:57.332Z,99229.00
2023-03-06T23:10:24.505Z,99219.28
2023-03-06T23:12:55.973Z,99225.38
2023-03-06T23:15:27.953Z,99221.94
2023-03-06T23:17:58.588Z,99226.97
2023-03-06T23:20:31.206Z,99224.53
2023-03-06T23:23:01.582Z,99214.19
2023-03-06T23:25:33.179Z,99218.75
2023-03-06T23:28:00.702Z,99161.09
2023-03-06T23:30:31.770Z,99223.28
2023-03-06T23:33:15.146Z,99218.81
2023-03-06T23:35:44.348Z,99200.47
2023-03-06T23:38:13.885Z,99213.75
2023-03-06T23:40:43.818Z,99204.13
2023-03-06T23:43:10.509Z,99214.28
2023-03-06T23:45:37.240Z,99203.91
2023-03-06T23:48:09.805Z,99208.72
2023-03-06T23:50:39.808Z,99197.38
2023-03-06T23:53:18.560Z,99203.56
2023-03-06T23:55:47.927Z,99200.41
2023-03-06T23:58:16.291Z,99199.06
